createdAt,value
2022-09-16T00:00:50.272Z,4.1
2022-09-16T00:02:49.634Z,4.1
2022-09-16T00:04:50.117Z,4.2
2022-09-16T00:06:49.626Z,4.2
2022-09-16T00:08:49.620Z,4.4
2022-09-16T00:10:50.398Z,3.9
2022-09-16T00:12:50.250Z,3.8
2022-09-16T00:14:50.137Z,4.0
2022-09-16T00:16:50.395Z,4.0
2022-09-16T00:18:50.328Z,4.3
2022-09-16T00:20:50.202Z,4.0
2022-09-16T00:22:49.988Z,4.3
2022-09-16T00:24:49.847Z,3.7
2022-09-16T00:26:50.139Z,3.7
2022-09-16T00:28:50.257Z,3.8
2022-09-16T00:30:50.430Z,4.1
2022-09-16T00:32:50.469Z,4.0
2022-09-16T00:34:50.003Z,3.8
2022-09-16T00:36:50.150Z,3.8
2022-09-16T00:38:50.363Z,4.2
2022-09-16T00:40:50.184Z,3.7
2022-09-16T00:42:50.120Z,4.1
2022-09-16T00:44:50.168Z,4.1
2022-09-16T00:46:50.119Z,4.1
2022-09-16T00:48:50.310Z,4.0
2022-09-16T00:50:50.187Z,4.0
2022-09-16T00:52:50.079Z,3.7
2022-09-16T00:54:50.008Z,3.7
2022-09-16T00:56:50.304Z,3.9
2022-09-16T00:58:50.151Z,4.0
2022-09-16T01:00:50.149Z,4.6
2022-09-16T01:02:49.556Z,4.6
2022-09-16T01:04:49.933Z,3.8
2022-09-16T01:06:50.083Z,3.9
2022-09-16T01:08:49.899Z,3.9
2022-09-16T01:10:49.972Z,4.3
2022-09-16T01:12:49.833Z,4.3
2022-09-16T01:14:49.800Z,5.3
2022-09-16T01:16:49.976Z,3.8
2022-09-16T01:18:49.921Z,4.2
2022-09-16T01:20:49.721Z,4.2
2022-09-16T01:22:49.624Z,4.3
2022-09-16T01:24:49.620Z,4.5
2022-09-16T01:26:49.898Z,4.2
2022-09-16T01:28:49.770Z,3.8
2022-09-16T01:30:49.854Z,4.2
2022-09-16T01:32:49.677Z,4.2
2022-09-16T01:34:50.065Z,4.4
2022-09-16T01:36:50.395Z,4.4
2022-09-16T01:38:50.373Z,4.4
2022-09-16T01:40:50.199Z,4.0
2022-09-16T01:42:49.865Z,4.0
2022-09-16T01:44:49.806Z,4.3
2022-09-16T01:46:50.060Z,4.2
2022-09-16T01:48:53.580Z,3.9
2022-09-16T01:50:49.819Z,4.0
2022-09-16T01:52:49.634Z,4.0
2022-09-16T01:54:49.650Z,4.0
2022-09-16T01:56:49.724Z,3.6
2022-09-16T01:58:50.491Z,3.9
2022-09-16T02:00:50.255Z,4.0
2022-09-16T02:02:50.160Z,4.0
2022-09-16T02:04:49.968Z,4.2
2022-09-16T02:06:50.328Z,4.2
2022-09-16T02:08:50.498Z,4.2
2022-09-16T02:10:50.376Z,3.6
2022-09-16T02:12:50.286Z,3.6
2022-09-16T02:14:50.383Z,4.9
2022-09-16T02:16:50.489Z,3.5
2022-09-16T02:18:50.352Z,4.7
2022-09-16T02:20:50.280Z,4.7
2022-09-16T02:22:49.949Z,3.6
2022-09-16T02:24:49.606Z,3.6
2022-09-16T02:26:49.689Z,3.7
2022-09-16T02:28:50.466Z,3.7
2022-09-16T02:30:50.333Z,3.6
2022-09-16T02:32:50.402Z,3.6
2022-09-16T02:34:49.948Z,4.1
2022-09-16T02:36:50.219Z,4.2
2022-09-16T02:38:50.182Z,3.7
2022-09-16T02:40:50.226Z,3.7
2022-09-16T02:42:50.058Z,3.4
2022-09-16T02:44:49.794Z,3.7
2022-09-16T02:46:50.043Z,4.2
2022-09-16T02:48:50.058Z,4.2
2022-09-16T02:50:50.027Z,3.3
2022-09-16T02:52:49.766Z,3.9
2022-09-16T02:54:49.602Z,4.0
2022-09-16T02:56:49.813Z,4.3
2022-09-16T02:58:49.637Z,4.3
2022-09-16T03:00:50.532Z,3.7
2022-09-16T03:02:50.477Z,3.8
2022-09-16T03:04:50.413Z,4.0
2022-09-16T03:06:49.594Z,3.6
2022-09-16T03:08:50.562Z,3.6
2022-09-16T03:10:50.433Z,4.5
2022-09-16T03:12:50.455Z,3.4
2022-09-16T03:14:50.375Z,3.8
2022-09-16T03:16:49.694Z,3.4
2022-09-16T03:18:50.470Z,3.4
2022-09-16T03:20:50.467Z,5.3
2022-09-16T03:22:50.302Z,4.0
2022-09-16T03:24:50.210Z,4.0
2022-09-16T03:26:50.516Z,3.4
2022-09-16T03:28:50.225Z,3.4
2022-09-16T03:30:50.180Z,3.7
2022-09-16T03:32:50.337Z,3.5
2022-09-16T03:34:49.642Z,3.9
2022-09-16T03:36:49.591Z,3.9
2022-09-16T03:38:50.321Z,3.9
2022-09-16T03:40:50.103Z,4.1
2022-09-16T03:42:49.869Z,3.4
2022-09-16T03:44:49.710Z,3.7
2022-09-16T03:46:49.762Z,3.7
2022-09-16T03:48:49.615Z,4.4
2022-09-16T03:50:49.542Z,4.4
2022-09-16T03:52:50.307Z,4.4
2022-09-16T03:54:50.143Z,4.0
2022-09-16T03:56:50.286Z,3.9
2022-09-16T03:58:50.194Z,3.9
2022-09-16T04:00:50.282Z,3.6
2022-09-16T04:02:50.151Z,3.9
2022-09-16T04:04:50.155Z,3.5
2022-09-16T04:06:50.323Z,3.9
2022-09-16T04:08:50.100Z,3.9
2022-09-16T04:10:49.968Z,4.6
2022-09-16T04:12:49.699Z,4.1
2022-09-16T04:14:49.535Z,3.7
2022-09-16T04:16:49.676Z,3.7
2022-09-16T04:18:49.607Z,3.6
2022-09-16T04:20:49.542Z,5.2
2022-09-16T04:22:50.367Z,6.7
2022-09-16T04:24:50.306Z,6.7
2022-09-16T04:26:49.728Z,3.6
2022-09-16T04:28:50.454Z,3.9
2022-09-16T04:30:50.459Z,3.8
2022-09-16T04:32:49.652Z,3.8
2022-09-16T04:34:49.985Z,3.8
2022-09-16T04:36:50.104Z,3.5
2022-09-16T04:38:50.021Z,5.5
2022-09-16T04:40:50.238Z,4.0
2022-09-16T04:42:50.163Z,3.8
2022-09-16T04:44:50.185Z,3.8
2022-09-16T04:46:49.602Z,4.1
2022-09-16T04:48:49.661Z,4.3
2022-09-16T04:50:50.447Z,4.8
2022-09-16T04:52:50.386Z,5.5
2022-09-16T04:54:50.373Z,5.5
2022-09-16T04:56:49.757Z,4.3
2022-09-16T04:58:49.638Z,4.7
2022-09-16T05:00:49.585Z,4.0
2022-09-16T05:02:50.389Z,3.5
2022-09-16T05:04:49.732Z,3.5
2022-09-16T05:06:50.087Z,5.3
2022-09-16T05:08:49.978Z,5.3
2022-09-16T05:10:49.894Z,4.8
2022-09-16T05:12:49.796Z,4.1
2022-09-16T05:14:49.592Z,4.1
2022-09-16T05:16:49.863Z,3.9
2022-09-16T05:18:49.923Z,3.9
2022-09-16T05:20:49.951Z,4.0
2022-09-16T05:22:50.033Z,3.8
2022-09-16T05:24:50.196Z,3.8
2022-09-16T05:26:50.436Z,4.4
2022-09-16T05:28:50.248Z,4.1
2022-09-16T05:30:50.251Z,4.8
2022-09-16T05:32:50.480Z,4.8
2022-09-16T05:34:49.714Z,3.7
2022-09-16T05:36:49.957Z,3.9
2022-09-16T05:39:04.950Z,4.0
2022-09-16T05:40:49.930Z,3.6
2022-09-16T05:42:49.699Z,3.6
2022-09-16T05:44:49.582Z,4.5
2022-09-16T05:46:49.730Z,3.2
2022-09-16T05:48:49.621Z,3.2
2022-09-16T05:50:49.592Z,3.0
2022-09-16T05:52:50.445Z,3.0
2022-09-16T05:54:49.629Z,3.7
2022-09-16T05:56:49.970Z,2.9
2022-09-16T05:58:49.700Z,4.7
2022-09-16T06:00:49.559Z,2.6
2022-09-16T06:02:49.604Z,2.6
2022-09-16T06:04:50.331Z,3.6
2022-09-16T06:06:50.364Z,3.8
2022-09-16T06:08:49.649Z,3.8
2022-09-16T06:10:49.561Z,4.4
2022-09-16T06:12:50.458Z,3.2
2022-09-16T06:14:50.314Z,3.5
2022-09-16T06:16:50.385Z,3.2
2022-09-16T06:18:50.325Z,4.4
2022-09-16T06:20:50.436Z,4.4
2022-09-16T06:22:50.266Z,2.7
2022-09-16T06:24:50.242Z,3.8
2022-09-16T06:26:50.520Z,2.8
2022-09-16T06:28:50.478Z,4.1
2022-09-16T06:30:50.273Z,4.1
2022-09-16T06:32:50.397Z,2.5
2022-09-16T06:34:49.916Z,3.1
2022-09-16T06:36:50.079Z,3.1
2022-09-16T06:38:50.184Z,3.7
2022-09-16T06:40:49.989Z,3.7
2022-09-16T06:42:49.768Z,4.1
2022-09-16T06:44:49.635Z,7.1
2022-09-16T06:46:49.861Z,4.1
2022-09-16T06:48:49.741Z,3.3
2022-09-16T06:50:49.579Z,3.3
2022-09-16T06:52:50.384Z,11.5
2022-09-16T06:54:50.214Z,3.6
2022-09-16T06:56:49.577Z,2.8
2022-09-16T06:58:50.413Z,4.6
2022-09-16T07:00:50.368Z,4.6
2022-09-16T07:02:50.458Z,3.4
2022-09-16T07:04:50.008Z,2.1
2022-09-16T07:07:08.499Z,9.0
2022-09-16T07:08:49.799Z,7.4
2022-09-16T07:10:49.573Z,7.4
2022-09-16T07:12:50.403Z,11.4
2022-09-16T07:14:50.367Z,5.3
2022-09-16T07:16:49.585Z,4.8
2022-09-16T07:18:49.680Z,4.8
2022-09-16T07:20:50.418Z,4.7
2022-09-16T07:22:49.748Z,1.9
2022-09-16T07:24:49.770Z,2.1
2022-09-16T07:26:50.031Z,2.1
2022-09-16T07:28:49.731Z,2.1
2022-09-16T07:30:49.723Z,1.9
2022-09-16T07:32:50.127Z,1.7
2022-09-16T07:34:49.611Z,2.1
2022-09-16T07:36:49.979Z,2.4
2022-09-16T07:38:49.926Z,2.4
2022-09-16T07:40:50.046Z,3.1
2022-09-16T07:42:49.871Z,2.5
2022-09-16T07:44:49.664Z,4.2
2022-09-16T07:46:49.929Z,1.9
2022-09-16T07:48:50.008Z,1.9
2022-09-16T07:50:49.888Z,1.9
2022-09-16T07:52:49.563Z,3.9
2022-09-16T07:54:50.359Z,6.9
2022-09-16T07:56:50.490Z,6.5
2022-09-16T07:58:50.262Z,6.5
2022-09-16T08:00:50.099Z,3.6
2022-09-16T08:02:50.154Z,6.3
2022-09-16T08:04:49.967Z,2.9
2022-09-16T08:06:50.434Z,2.0
2022-09-16T08:08:50.243Z,2.0
2022-09-16T08:10:50.323Z,2.0
2022-09-16T08:12:50.224Z,2.2
2022-09-16T08:14:50.129Z,1.8
2022-09-16T08:16:50.554Z,1.8
2022-09-16T08:18:49.928Z,2.3
2022-09-16T08:20:49.741Z,3.3
2022-09-16T08:22:51.945Z,3.0
2022-09-16T08:24:49.829Z,3.0
2022-09-16T08:26:50.064Z,1.9
2022-09-16T08:29:07.644Z,3.5
2022-09-16T08:30:52.654Z,1.9
2022-09-16T08:32:50.370Z,1.7
2022-09-16T08:34:50.006Z,2.1
2022-09-16T08:36:50.304Z,2.1
2022-09-16T08:38:50.203Z,1.6
2022-09-16T08:40:50.100Z,2.1
2022-09-16T08:42:49.958Z,1.7
2022-09-16T08:44:49.805Z,1.7
2022-09-16T08:46:49.969Z,2.0
2022-09-16T08:48:49.730Z,1.5
2022-09-16T08:50:49.891Z,2.8
2022-09-16T08:52:49.739Z,2.7
2022-09-16T08:54:49.769Z,2.7
2022-09-16T08:56:50.088Z,2.0
2022-09-16T08:58:50.027Z,1.7
2022-09-16T09:00:50.161Z,1.6
2022-09-16T09:02:50.384Z,4.3
2022-09-16T09:04:50.398Z,4.3
2022-09-16T09:06:49.806Z,2.7
2022-09-16T09:08:50.496Z,2.3
2022-09-16T09:10:50.423Z,2.3
2022-09-16T09:12:51.137Z,1.9
2022-09-16T09:14:49.673Z,1.9
2022-09-16T09:16:50.080Z,1.6
2022-09-16T09:18:49.632Z,2.4
2022-09-16T09:20:50.446Z,3.0
2022-09-16T09:22:50.350Z,2.8
2022-09-16T09:24:53.491Z,2.8
2022-09-16T09:26:50.195Z,1.7
2022-09-16T09:28:50.154Z,1.6
2022-09-16T09:30:49.972Z,1.9
2022-09-16T09:32:50.051Z,2.1
2022-09-16T09:34:50.477Z,2.1
2022-09-16T09:36:49.605Z,3.1
2022-09-16T09:38:49.650Z,1.7
2022-09-16T09:40:50.418Z,1.7
2022-09-16T09:42:50.426Z,1.8
2022-09-16T09:44:50.287Z,1.7
2022-09-16T09:46:50.552Z,3.7
2022-09-16T09:48:50.432Z,1.9
2022-09-16T09:50:50.202Z,2.1
2022-09-16T09:52:50.061Z,2.1
2022-09-16T09:54:49.863Z,3.1
2022-09-16T09:56:50.188Z,2.6
2022-09-16T09:58:50.212Z,1.7
2022-09-16T10:00:50.155Z,1.8
2022-09-16T10:02:50.380Z,1.8
2022-09-16T10:04:49.903Z,4.0
2022-09-16T10:06:49.915Z,1.7
2022-09-16T10:08:50.169Z,1.4
2022-09-16T10:10:50.147Z,1.4
2022-09-16T10:12:50.412Z,2.2
2022-09-16T10:14:50.341Z,2.8
2022-09-16T10:16:49.742Z,1.5
2022-09-16T10:18:50.028Z,2.9
2022-09-16T10:20:49.902Z,2.9
2022-09-16T10:22:49.900Z,2.4
2022-09-16T10:24:49.833Z,2.5
2022-09-16T10:26:50.114Z,1.7
2022-09-16T10:28:50.011Z,1.6
2022-09-16T10:30:49.965Z,1.6
2022-09-16T10:32:49.790Z,1.8
2022-09-16T10:34:50.150Z,2.6
2022-09-16T10:36:50.502Z,1.9
2022-09-16T10:38:50.153Z,1.5
2022-09-16T10:40:50.069Z,1.5
2022-09-16T10:42:49.918Z,1.9
2022-09-16T10:44:50.033Z,2.9
2022-09-16T10:46:50.261Z,1.7
2022-09-16T10:48:50.273Z,2.2
2022-09-16T10:50:50.189Z,2.2
2022-09-16T10:52:49.974Z,2.9
2022-09-16T10:54:50.048Z,5.1
2022-09-16T10:56:49.739Z,5.1
2022-09-16T10:58:49.830Z,3.6
2022-09-16T11:00:49.778Z,1.9
2022-09-16T11:02:50.040Z,3.9
2022-09-16T11:04:50.433Z,2.6
2022-09-16T11:06:49.723Z,2.2
2022-09-16T11:08:49.647Z,2.0
2022-09-16T11:10:50.476Z,2.0
2022-09-16T11:12:50.253Z,2.9
2022-09-16T11:14:50.125Z,5.1
2022-09-16T11:16:50.393Z,1.7
2022-09-16T11:18:52.237Z,2.7
2022-09-16T11:20:50.066Z,2.7
2022-09-16T11:22:50.000Z,2.7
2022-09-16T11:24:49.853Z,2.7
2022-09-16T11:26:50.064Z,2.0
2022-09-16T11:28:49.798Z,2.0
2022-09-16T11:30:50.537Z,2.0
2022-09-16T11:32:50.465Z,2.5
2022-09-16T11:34:49.627Z,1.8
2022-09-16T11:36:49.850Z,7.2
2022-09-16T11:38:49.660Z,7.2
2022-09-16T11:40:50.558Z,4.4
2022-09-16T11:42:50.543Z,4.1
2022-09-16T11:44:50.468Z,2.2
2022-09-16T11:46:49.747Z,2.7
2022-09-16T11:48:49.920Z,2.7
2022-09-16T11:50:49.871Z,2.8
2022-09-16T11:52:49.868Z,2.0
2022-09-16T11:54:50.275Z,2.0
2022-09-16T11:56:50.394Z,1.9
2022-09-16T11:58:50.257Z,1.9
2022-09-16T12:00:50.318Z,2.5
2022-09-16T12:02:50.314Z,2.5
2022-09-16T12:04:50.001Z,4.0
2022-09-16T12:06:50.247Z,4.0
2022-09-16T12:08:50.211Z,3.0
2022-09-16T12:10:50.206Z,2.5
2022-09-16T12:12:50.107Z,2.2
2022-09-16T12:14:50.140Z,1.7
2022-09-16T12:16:50.440Z,1.7
2022-09-16T12:18:50.417Z,5.2
2022-09-16T12:20:50.324Z,3.6
2022-09-16T12:22:50.352Z,2.7
2022-09-16T12:24:50.292Z,2.0
2022-09-16T12:26:49.558Z,2.0
2022-09-16T12:28:49.553Z,1.9
2022-09-16T12:30:50.361Z,3.9
2022-09-16T12:32:49.588Z,2.1
2022-09-16T12:34:50.150Z,2.1
2022-09-16T12:36:50.359Z,3.3
2022-09-16T12:38:50.329Z,2.2
2022-09-16T12:40:50.366Z,2.1
2022-09-16T12:42:50.400Z,5.2
2022-09-16T12:44:50.346Z,1.6
2022-09-16T12:46:49.650Z,1.6
2022-09-16T12:48:50.038Z,2.0
2022-09-16T12:50:50.061Z,2.6
2022-09-16T12:52:49.825Z,2.6
2022-09-16T12:55:04.354Z,2.3
2022-09-16T12:56:50.009Z,2.3
2022-09-16T12:58:50.089Z,1.7
2022-09-16T13:00:50.096Z,3.0
2022-09-16T13:02:49.975Z,1.8
2022-09-16T13:04:49.835Z,5.5
2022-09-16T13:06:50.194Z,5.5
2022-09-16T13:08:50.167Z,3.7
2022-09-16T13:11:00.777Z,2.8
2022-09-16T13:12:50.036Z,3.8
2022-09-16T13:14:49.978Z,3.8
2022-09-16T13:16:50.325Z,3.0
2022-09-16T13:18:50.117Z,2.9
2022-09-16T13:20:49.797Z,3.5
2022-09-16T13:22:49.720Z,3.4
2022-09-16T13:24:49.787Z,3.4
2022-09-16T13:26:50.019Z,6.1
2022-09-16T13:28:50.035Z,3.2
2022-09-16T13:30:50.009Z,3.3
2022-09-16T13:32:50.326Z,3.3
2022-09-16T13:34:49.745Z,3.0
2022-09-16T13:36:50.017Z,3.4
2022-09-16T13:38:49.881Z,4.0
2022-09-16T13:40:49.888Z,4.9
2022-09-16T13:42:50.012Z,3.3
2022-09-16T13:44:49.690Z,3.3
2022-09-16T13:46:49.906Z,4.0
2022-09-16T13:48:49.936Z,4.6
2022-09-16T13:50:49.927Z,2.8
2022-09-16T13:52:49.726Z,4.1
2022-09-16T13:55:09.226Z,4.1
2022-09-16T13:56:50.462Z,2.8
2022-09-16T13:58:50.435Z,2.1
2022-09-16T14:00:50.256Z,2.1
2022-09-16T14:02:50.437Z,3.0
2022-09-16T14:04:50.488Z,2.0
2022-09-16T14:06:49.705Z,2.3
2022-09-16T14:08:51.698Z,1.9
2022-09-16T14:10:49.668Z,2.1
2022-09-16T14:12:49.653Z,2.1
2022-09-16T14:14:50.423Z,2.2
2022-09-16T14:16:49.759Z,2.1
2022-09-16T14:18:49.622Z,2.6
2022-09-16T14:20:49.581Z,2.6
2022-09-16T14:22:50.488Z,1.8
2022-09-16T14:24:52.902Z,2.0
2022-09-16T14:26:49.690Z,1.9
2022-09-16T14:28:49.644Z,1.6
2022-09-16T14:30:50.038Z,1.6
2022-09-16T14:32:50.267Z,3.0
2022-09-16T14:34:49.778Z,2.1
2022-09-16T14:36:49.958Z,2.4
2022-09-16T14:38:49.963Z,3.3
2022-09-16T14:40:50.127Z,3.4
2022-09-16T14:42:50.007Z,3.4
2022-09-16T14:44:49.829Z,1.9
2022-09-16T14:46:50.157Z,1.8
2022-09-16T14:48:50.128Z,1.6
2022-09-16T14:50:50.082Z,1.6
2022-09-16T14:52:49.844Z,1.9
2022-09-16T14:54:49.769Z,2.2
2022-09-16T14:56:49.988Z,1.5
2022-09-16T14:58:49.808Z,1.7
2022-09-16T15:00:49.597Z,1.7
2022-09-16T15:02:50.351Z,2.3
2022-09-16T15:04:50.054Z,1.5
2022-09-16T15:06:50.414Z,1.7
2022-09-16T15:08:50.300Z,1.4
2022-09-16T15:10:52.265Z,1.4
2022-09-16T15:12:50.320Z,1.5
2022-09-16T15:14:50.046Z,1.2
2022-09-16T15:16:50.136Z,2.6
2022-09-16T15:18:49.987Z,1.2
2022-09-16T15:20:50.217Z,1.2
2022-09-16T15:22:50.142Z,1.1
2022-09-16T15:24:50.069Z,1.3
2022-09-16T15:26:50.223Z,1.2
2022-09-16T15:28:50.102Z,1.2
2022-09-16T15:30:50.094Z,1.4
2022-09-16T15:32:50.448Z,1.5
2022-09-16T15:34:49.936Z,1.5
2022-09-16T15:36:50.153Z,1.8
2022-09-16T15:38:50.237Z,1.5
2022-09-16T15:40:50.123Z,2.5
2022-09-16T15:42:49.802Z,2.4
2022-09-16T15:44:49.656Z,2.5
2022-09-16T15:46:49.824Z,1.5
2022-09-16T15:48:49.781Z,1.5
2022-09-16T15:50:49.804Z,1.8
2022-09-16T15:52:49.845Z,1.7
2022-09-16T15:54:49.873Z,1.7
2022-09-16T15:56:50.187Z,2.2
2022-09-16T15:58:49.990Z,2.2
2022-09-16T16:00:49.980Z,1.7
2022-09-16T16:02:49.984Z,1.9
2022-09-16T16:04:49.618Z,1.8
2022-09-16T16:06:49.978Z,1.9
2022-09-16T16:08:49.685Z,1.9
2022-09-16T16:10:49.667Z,2.8
2022-09-16T16:12:50.529Z,1.8
2022-09-16T16:14:49.540Z,2.8
2022-09-16T16:17:08.883Z,2.4
2022-09-16T16:18:49.723Z,2.4
2022-09-16T16:20:49.794Z,2.0
2022-09-16T16:22:49.837Z,5.6
2022-09-16T16:24:49.806Z,5.6
2022-09-16T16:26:52.613Z,2.7
2022-09-16T16:28:49.712Z,3.2
2022-09-16T16:30:49.745Z,2.2
2022-09-16T16:32:50.120Z,3.2
2022-09-16T16:34:50.276Z,3.2
2022-09-16T16:36:50.489Z,2.5
2022-09-16T16:38:50.508Z,2.3
2022-09-16T16:40:50.249Z,3.0
2022-09-16T16:42:50.243Z,2.8
2022-09-16T16:44:50.091Z,2.5
2022-09-16T16:46:50.414Z,2.5
2022-09-16T16:48:50.319Z,3.5
2022-09-16T16:50:50.101Z,2.7
2022-09-16T16:52:50.043Z,2.2
2022-09-16T16:54:49.949Z,2.2
2022-09-16T16:56:50.023Z,4.4
2022-09-16T16:58:49.761Z,3.3
2022-09-16T17:00:50.457Z,2.1
2022-09-16T17:02:50.500Z,2.1
2022-09-16T17:04:50.447Z,1.9
2022-09-16T17:07:02.844Z,2.4
2022-09-16T17:08:50.018Z,2.4
2022-09-16T17:10:50.335Z,1.9
2022-09-16T17:12:50.265Z,5.3
2022-09-16T17:14:50.059Z,5.3
2022-09-16T17:16:50.428Z,2.1
2022-09-16T17:18:50.366Z,1.7
2022-09-16T17:20:50.457Z,2.6
2022-09-16T17:22:50.283Z,1.7
2022-09-16T17:24:50.164Z,1.7
2022-09-16T17:26:50.461Z,1.8
2022-09-16T17:28:50.401Z,1.9
2022-09-16T17:30:50.298Z,2.4
2022-09-16T17:32:49.620Z,2.4
2022-09-16T17:34:49.960Z,1.7
2022-09-16T17:36:50.435Z,3.0
2022-09-16T17:38:50.277Z,2.4
2022-09-16T17:40:50.131Z,1.7
2022-09-16T17:42:49.942Z,1.7
2022-09-16T17:44:50.058Z,1.9
2022-09-16T17:46:50.334Z,1.5
2022-09-16T17:48:50.308Z,2.7
2022-09-16T17:50:50.249Z,2.0
2022-09-16T17:52:50.061Z,2.0
2022-09-16T17:54:49.958Z,1.8
2022-09-16T17:56:50.251Z,1.6
2022-09-16T17:58:50.066Z,1.7
2022-09-16T18:00:49.915Z,1.7
2022-09-16T18:02:49.863Z,2.1
2022-09-16T18:04:50.554Z,2.4
2022-09-16T18:06:49.851Z,1.8
2022-09-16T18:08:49.772Z,2.7
2022-09-16T18:10:49.597Z,2.7
2022-09-16T18:12:49.685Z,1.8
2022-09-16T18:14:49.581Z,1.9
2022-09-16T18:16:49.880Z,1.8
2022-09-16T18:18:50.144Z,1.8
2022-09-16T18:20:50.004Z,1.8
2022-09-16T18:22:50.032Z,2.0
2022-09-16T18:24:49.965Z,2.1
2022-09-16T18:26:49.995Z,1.9
2022-09-16T18:29:08.463Z,2.1
2022-09-16T18:30:50.468Z,1.8
2022-09-16T18:32:49.799Z,1.8
2022-09-16T18:34:50.228Z,2.6
2022-09-16T18:36:50.319Z,1.6
2022-09-16T18:38:50.234Z,1.7
2022-09-16T18:40:50.105Z,1.7
2022-09-16T18:42:50.256Z,1.7
2022-09-16T18:44:50.256Z,1.7
2022-09-16T18:46:50.394Z,1.8
2022-09-16T18:48:50.245Z,1.8
2022-09-16T18:50:50.059Z,1.8
2022-09-16T18:52:50.030Z,1.8
2022-09-16T18:54:49.972Z,2.0
2022-09-16T18:56:50.248Z,3.0
2022-09-16T18:59:09.821Z,3.0
2022-09-16T19:00:50.592Z,1.9
2022-09-16T19:02:50.010Z,1.7
2022-09-16T19:04:50.504Z,1.7
2022-09-16T19:06:49.653Z,2.0
2022-09-16T19:08:50.443Z,1.7
2022-09-16T19:10:50.434Z,2.1
2022-09-16T19:12:50.206Z,1.9
2022-09-16T19:14:49.978Z,1.7
2022-09-16T19:16:50.440Z,2.6
2022-09-16T19:18:50.380Z,2.6
2022-09-16T19:20:50.358Z,1.6
2022-09-16T19:22:50.307Z,1.6
2022-09-16T19:24:50.094Z,1.6
2022-09-16T19:26:50.325Z,2.2
2022-09-16T19:28:50.295Z,2.2
2022-09-16T19:30:50.126Z,1.8
2022-09-16T19:32:50.031Z,1.8
2022-09-16T19:34:50.004Z,2.1
2022-09-16T19:36:50.509Z,2.1
2022-09-16T19:38:50.349Z,2.1
2022-09-16T19:40:50.227Z,2.1
2022-09-16T19:42:50.161Z,2.5
2022-09-16T19:44:50.120Z,1.7
2022-09-16T19:46:50.519Z,2.5
2022-09-16T19:48:50.507Z,1.9
2022-09-16T19:50:50.307Z,1.9
2022-09-16T19:52:50.139Z,2.3
2022-09-16T19:54:50.030Z,2.4
2022-09-16T19:56:50.958Z,2.2
2022-09-16T19:58:50.255Z,2.2
2022-09-16T20:00:56.027Z,1.7
2022-09-16T20:02:50.586Z,2.0
2022-09-16T20:04:50.386Z,1.9
2022-09-16T20:06:49.650Z,1.9
2022-09-16T20:08:50.014Z,1.7
2022-09-16T20:10:49.908Z,1.7
2022-09-16T20:12:49.863Z,1.7
2022-09-16T20:14:49.777Z,1.7
2022-09-16T20:16:50.065Z,1.7
2022-09-16T20:18:49.627Z,1.6
2022-09-16T20:20:50.257Z,3.0
2022-09-16T20:22:50.172Z,1.6
2022-09-16T20:25:01.121Z,1.6
2022-09-16T20:26:50.507Z,1.6
2022-09-16T20:28:50.418Z,1.4
2022-09-16T20:30:50.198Z,1.6
2022-09-16T20:32:50.092Z,1.8
2022-09-16T20:34:50.337Z,1.6
2022-09-16T20:36:50.414Z,1.6
2022-09-16T20:38:50.379Z,1.4
2022-09-16T20:40:50.374Z,1.4
2022-09-16T20:42:50.347Z,1.6
2022-09-16T20:44:50.300Z,1.6
2022-09-16T20:46:50.330Z,1.6
2022-09-16T20:48:50.166Z,1.3
2022-09-16T20:50:50.110Z,1.2
2022-09-16T20:52:49.985Z,1.3
2022-09-16T20:54:49.703Z,1.4
2022-09-16T20:56:49.945Z,1.4
2022-09-16T20:58:49.762Z,1.4
2022-09-16T21:00:50.556Z,1.2
2022-09-16T21:02:49.755Z,1.2
2022-09-16T21:04:50.320Z,1.5
2022-09-16T21:06:49.739Z,1.5
2022-09-16T21:08:49.690Z,1.4
2022-09-16T21:10:49.743Z,1.5
2022-09-16T21:12:49.746Z,1.4
2022-09-16T21:14:50.477Z,1.4
2022-09-16T21:16:49.778Z,1.4
2022-09-16T21:18:49.858Z,1.3
2022-09-16T21:20:49.630Z,1.3
2022-09-16T21:22:50.341Z,1.1
2022-09-16T21:24:50.095Z,1.1
2022-09-16T21:26:50.095Z,1.5
2022-09-16T21:28:49.885Z,1.2
2022-09-16T21:30:49.915Z,1.5
2022-09-16T21:32:49.843Z,1.8
2022-09-16T21:34:50.348Z,1.8
2022-09-16T21:36:50.459Z,1.5
2022-09-16T21:38:50.376Z,1.4
2022-09-16T21:40:50.339Z,1.4
2022-09-16T21:42:50.192Z,1.4
2022-09-16T21:44:50.028Z,2.0
2022-09-16T21:46:50.236Z,2.4
2022-09-16T21:48:49.697Z,1.2
2022-09-16T21:50:49.943Z,1.3
2022-09-16T21:52:49.781Z,1.8
2022-09-16T21:54:50.538Z,1.8
2022-09-16T21:56:49.700Z,1.3
2022-09-16T21:58:49.629Z,1.5
2022-09-16T22:00:50.557Z,1.4
2022-09-16T22:02:49.832Z,1.7
2022-09-16T22:04:49.809Z,1.7
2022-09-16T22:06:49.931Z,1.5
2022-09-16T22:08:49.948Z,1.4
2022-09-16T22:10:49.782Z,1.7
2022-09-16T22:12:49.816Z,1.7
2022-09-16T22:14:50.472Z,1.7
2022-09-16T22:16:49.762Z,1.6
2022-09-16T22:18:49.571Z,1.7
2022-09-16T22:20:50.371Z,1.6
2022-09-16T22:22:50.142Z,1.9
2022-09-16T22:24:49.892Z,1.9
2022-09-16T22:26:50.212Z,1.7
2022-09-16T22:28:50.169Z,1.8
2022-09-16T22:30:50.047Z,1.8
2022-09-16T22:32:49.901Z,1.8
2022-09-16T22:34:50.446Z,1.7
2022-09-16T22:36:49.582Z,2.1
2022-09-16T22:38:50.383Z,1.8
2022-09-16T22:40:50.418Z,2.5
2022-09-16T22:42:50.441Z,2.5
2022-09-16T22:44:50.367Z,2.0
2022-09-16T22:46:50.603Z,1.9
2022-09-16T22:48:49.958Z,1.8
2022-09-16T22:50:49.994Z,1.8
2022-09-16T22:52:49.687Z,2.3
2022-09-16T22:54:49.687Z,2.2
2022-09-16T22:56:49.982Z,2.0
2022-09-16T22:58:49.768Z,2.0
2022-09-16T23:00:49.933Z,2.1
2022-09-16T23:02:49.864Z,2.0
2022-09-16T23:04:50.378Z,2.6
2022-09-16T23:06:50.430Z,1.8
2022-09-16T23:08:50.193Z,2.2
2022-09-16T23:10:50.053Z,2.2
2022-09-16T23:12:49.998Z,2.3
2022-09-16T23:14:49.736Z,1.9
2022-09-16T23:16:49.959Z,2.2
2022-09-16T23:18:49.830Z,2.5
2022-09-16T23:20:49.743Z,2.5
2022-09-16T23:22:49.637Z,2.4
2022-09-16T23:24:50.430Z,2.1
2022-09-16T23:26:50.395Z,2.1
2022-09-16T23:28:50.188Z,2.1
2022-09-16T23:30:50.190Z,2.1
2022-09-16T23:32:50.214Z,2.0
2022-09-16T23:34:50.451Z,2.2
2022-09-16T23:36:49.885Z,1.8
2022-09-16T23:38:49.780Z,1.9
2022-09-16T23:40:50.498Z,1.9
2022-09-16T23:42:50.418Z,1.7
2022-09-16T23:44:50.277Z,1.9
2022-09-16T23:46:50.571Z,1.8
2022-09-16T23:48:49.882Z,1.8
2022-09-16T23:50:49.848Z,1.8
2022-09-16T23:52:49.748Z,1.4
2022-09-16T23:54:49.563Z,2.3
2022-09-16T23:56:49.667Z,1.7
2022-09-16T23:58:50.391Z,1.7
